Terminal Aerodrome Forecast
Issued by NWS Cleveland, OH

Home | Current Version | Previous Version | Graphics & Text | Print | Product List | Glossary On
Versions: 1 2 3 4 5 6 7 8 9 10 11 12 13 14 15 16 17 18 19 20 21 22
000
FTUS41 KCLE 011600 AAC
TAFERI
TAF AMD
KERI 011633Z 0117/0212 19008KT 5SM -SN BKN025 OVC035
     FM011800 24007KT 2SM -SN BKN015 OVC030
     FM020000 25008KT 6SM -SN OVC015
     FM020600 25009KT P6SM OVC025=

USA.gov is the U.S. government's official web portal to all federal, state and local government web resources and services.